createdAt,value
2022-12-06T00:02:17.726Z,2.94
2022-12-06T00:05:19.189Z,2.95
2022-12-06T00:08:20.644Z,2.96
2022-12-06T00:11:27.830Z,2.96
2022-12-06T00:14:29.177Z,2.97
2022-12-06T00:17:30.574Z,2.99
2022-12-06T00:20:31.921Z,3.01
2022-12-06T00:23:35.729Z,3.00
2022-12-06T00:26:42.839Z,3.00
2022-12-06T00:29:44.186Z,3.00
2022-12-06T00:32:45.527Z,3.00
2022-12-06T00:35:55.477Z,3.00
2022-12-06T00:39:00.178Z,3.00
2022-12-06T00:42:01.538Z,2.99
2022-12-06T00:45:03.231Z,2.98
2022-12-06T00:48:04.891Z,2.99
2022-12-06T00:51:06.297Z,3.00
2022-12-06T00:54:08.779Z,3.01
2022-12-06T00:57:10.123Z,3.00
2022-12-06T01:00:12.251Z,3.00
2022-12-06T01:03:13.716Z,2.99
2022-12-06T01:06:15.892Z,3.01
2022-12-06T01:09:17.356Z,3.01
2022-12-06T01:12:18.687Z,3.00
2022-12-06T01:15:20.038Z,3.00
2022-12-06T01:18:21.615Z,3.01
2022-12-06T01:21:24.451Z,3.00
2022-12-06T01:24:25.801Z,2.98
2022-12-06T01:27:27.132Z,2.97
2022-12-06T01:30:28.560Z,2.99
2022-12-06T01:33:29.971Z,2.99
2022-12-06T01:36:31.545Z,2.97
2022-12-06T01:39:32.888Z,2.99
2022-12-06T01:42:34.351Z,3.00
2022-12-06T01:45:35.720Z,2.98
2022-12-06T01:48:37.888Z,2.99
2022-12-06T01:51:53.582Z,2.98
2022-12-06T01:54:55.205Z,3.00
2022-12-06T01:58:15.781Z,3.00
2022-12-06T02:01:17.370Z,2.99
2022-12-06T02:04:19.335Z,2.96
2022-12-06T02:07:22.198Z,2.99
2022-12-06T02:10:23.698Z,2.94
2022-12-06T02:13:25.886Z,2.96
2022-12-06T02:16:33.900Z,2.97
2022-12-06T02:19:38.023Z,2.94
2022-12-06T02:23:08.698Z,2.96
2022-12-06T02:26:28.471Z,2.95
2022-12-06T02:30:01.787Z,2.93
2022-12-06T02:33:18.646Z,2.94
2022-12-06T02:36:55.700Z,2.92
2022-12-06T02:40:05.896Z,2.94
2022-12-06T02:43:15.732Z,2.96
2022-12-06T02:46:21.083Z,2.94
2022-12-06T02:49:26.132Z,2.94
2022-12-06T02:52:30.247Z,2.95
2022-12-06T02:55:32.996Z,2.94
2022-12-06T02:58:37.867Z,2.94
2022-12-06T03:01:45.266Z,2.95
2022-12-06T03:05:00.576Z,2.96
2022-12-06T03:08:13.800Z,2.98
2022-12-06T03:11:15.759Z,2.96
2022-12-06T03:14:24.474Z,2.99
2022-12-06T03:17:43.908Z,2.99
2022-12-06T03:20:56.197Z,3.00
2022-12-06T03:23:58.442Z,2.99
2022-12-06T03:27:04.422Z,3.02
2022-12-06T03:30:09.401Z,3.02
2022-12-06T03:33:12.729Z,3.04
2022-12-06T03:36:17.233Z,3.02
2022-12-06T03:39:40.814Z,2.99
2022-12-06T03:42:42.747Z,3.00
2022-12-06T03:45:56.608Z,2.98
2022-12-06T03:49:17.822Z,2.99
2022-12-06T03:52:19.218Z,2.97
2022-12-06T03:55:20.579Z,3.01
2022-12-06T03:58:21.925Z,3.03
2022-12-06T04:01:23.792Z,3.01
2022-12-06T04:04:25.207Z,3.02
2022-12-06T04:07:26.560Z,3.04
2022-12-06T04:10:27.907Z,3.01
2022-12-06T04:13:29.512Z,3.03
2022-12-06T04:16:30.846Z,3.04
2022-12-06T04:19:32.220Z,3.03
2022-12-06T04:22:33.575Z,3.04
2022-12-06T04:25:36.398Z,3.06
2022-12-06T04:28:38.087Z,3.01
2022-12-06T04:31:40.655Z,3.03
2022-12-06T04:34:42.029Z,2.99
2022-12-06T04:37:43.360Z,2.99
2022-12-06T04:40:46.920Z,3.01
2022-12-06T04:43:48.273Z,3.00
2022-12-06T04:46:49.673Z,3.01
2022-12-06T04:49:52.545Z,3.02
2022-12-06T04:52:53.868Z,3.01
2022-12-06T04:55:55.384Z,2.99
2022-12-06T04:58:56.818Z,2.99
2022-12-06T05:01:58.196Z,2.99
2022-12-06T05:04:59.546Z,2.98
2022-12-06T05:08:00.900Z,2.95
2022-12-06T05:11:02.312Z,2.92
2022-12-06T05:14:03.854Z,2.92
2022-12-06T05:17:05.302Z,2.87
2022-12-06T05:20:07.241Z,2.88
2022-12-06T05:23:08.611Z,2.87
2022-12-06T05:26:13.564Z,2.82
2022-12-06T05:29:14.903Z,2.80
2022-12-06T05:32:16.291Z,2.79
2022-12-06T05:35:17.770Z,2.80
2022-12-06T05:38:20.178Z,2.79
2022-12-06T05:41:23.188Z,2.78
2022-12-06T05:44:24.540Z,2.77
2022-12-06T05:47:25.878Z,2.77
2022-12-06T05:50:27.288Z,2.77
2022-12-06T05:53:28.963Z,2.76
2022-12-06T05:56:30.504Z,2.73
2022-12-06T05:59:31.842Z,2.72
2022-12-06T06:02:33.354Z,2.75
2022-12-06T06:05:34.888Z,2.76
2022-12-06T06:08:36.284Z,2.77
2022-12-06T06:11:37.636Z,2.76
2022-12-06T06:14:39.127Z,2.75
2022-12-06T06:17:40.655Z,2.73
2022-12-06T06:20:42.047Z,2.75
2022-12-06T06:23:43.453Z,2.72
2022-12-06T06:26:44.805Z,2.73
2022-12-06T06:29:46.157Z,2.75
2022-12-06T06:32:47.674Z,2.74
2022-12-06T06:35:49.077Z,2.74
2022-12-06T06:38:50.437Z,2.75
2022-12-06T06:41:51.765Z,2.71
2022-12-06T06:44:53.501Z,2.71
2022-12-06T06:47:54.938Z,2.72
2022-12-06T06:50:57.943Z,2.68
2022-12-06T06:53:59.517Z,2.67
2022-12-06T06:57:00.892Z,2.65
2022-12-06T07:00:03.833Z,2.67
2022-12-06T07:03:05.344Z,2.67
2022-12-06T07:06:10.718Z,2.66
2022-12-06T07:09:12.455Z,2.65
2022-12-06T07:12:13.875Z,2.63
2022-12-06T07:15:15.399Z,2.61
2022-12-06T07:18:17.970Z,2.64
2022-12-06T07:21:19.958Z,2.59
2022-12-06T07:24:21.347Z,2.59
2022-12-06T07:27:22.732Z,2.61
2022-12-06T07:30:27.365Z,2.66
2022-12-06T07:33:28.809Z,2.61
2022-12-06T07:36:31.904Z,2.61
2022-12-06T07:39:33.257Z,2.61
2022-12-06T07:42:34.628Z,2.62
2022-12-06T07:45:36.488Z,2.61
2022-12-06T07:48:37.940Z,2.61
2022-12-06T07:51:39.280Z,2.61
2022-12-06T07:54:41.056Z,2.63
2022-12-06T07:57:43.896Z,2.61
2022-12-06T08:00:45.524Z,2.62
2022-12-06T08:03:46.883Z,2.60
2022-12-06T08:06:48.257Z,2.56
2022-12-06T08:09:51.385Z,2.60
2022-12-06T08:12:52.910Z,2.61
2022-12-06T08:15:54.433Z,2.64
2022-12-06T08:18:56.035Z,2.63
2022-12-06T08:21:57.431Z,2.66
2022-12-06T08:24:58.739Z,2.67
2022-12-06T08:28:00.083Z,2.68
2022-12-06T08:31:10.131Z,2.67
2022-12-06T08:34:12.897Z,2.63
2022-12-06T08:37:14.224Z,2.62
2022-12-06T08:40:15.662Z,2.63
2022-12-06T08:43:17.011Z,2.58
2022-12-06T08:46:18.412Z,2.57
2022-12-06T08:49:20.610Z,2.55
2022-12-06T08:52:21.976Z,2.60
2022-12-06T08:55:23.309Z,2.69
2022-12-06T08:58:24.647Z,2.66
2022-12-06T09:01:34.157Z,2.61
2022-12-06T09:04:38.807Z,2.60
2022-12-06T09:07:40.261Z,2.63
2022-12-06T09:10:43.450Z,2.70
2022-12-06T09:13:45.116Z,2.76
2022-12-06T09:16:46.460Z,2.75
2022-12-06T09:19:47.835Z,2.73
2022-12-06T09:22:49.180Z,2.73
2022-12-06T09:25:50.544Z,2.73
2022-12-06T09:28:54.776Z,2.68
2022-12-06T09:31:56.128Z,2.66
2022-12-06T09:34:57.449Z,2.61
2022-12-06T09:37:59.941Z,2.66
2022-12-06T09:41:15.536Z,2.65
2022-12-06T09:44:35.194Z,2.52
2022-12-06T09:47:48.801Z,2.58
2022-12-06T09:51:05.356Z,2.35
2022-12-06T09:54:37.956Z,2.46
2022-12-06T09:58:02.369Z,2.60
2022-12-06T10:01:22.076Z,2.54
2022-12-06T10:04:56.440Z,2.61
2022-12-06T10:08:03.787Z,2.63
2022-12-06T10:11:12.546Z,2.66
2022-12-06T10:14:36.722Z,2.69
2022-12-06T10:17:52.611Z,2.69
2022-12-06T10:21:10.350Z,2.77
2022-12-06T10:24:36.979Z,2.86
2022-12-06T10:27:44.484Z,2.83
2022-12-06T10:30:55.922Z,2.89
2022-12-06T10:34:20.204Z,2.91
2022-12-06T10:37:36.633Z,2.85
2022-12-06T10:40:49.916Z,2.82
2022-12-06T10:44:14.790Z,2.79
2022-12-06T10:47:26.679Z,2.86
2022-12-06T10:50:34.851Z,2.88
2022-12-06T10:53:44.879Z,2.94
2022-12-06T10:56:48.992Z,2.89
2022-12-06T11:00:10.416Z,2.93
2022-12-06T11:03:29.409Z,2.83
2022-12-06T11:06:36.913Z,2.93
2022-12-06T11:09:45.873Z,2.85
2022-12-06T11:12:50.772Z,2.80
2022-12-06T11:16:15.885Z,2.98
2022-12-06T11:19:31.386Z,3.06
2022-12-06T11:22:47.688Z,3.09
2022-12-06T11:26:16.065Z,3.09
2022-12-06T11:29:18.130Z,3.05
2022-12-06T11:32:19.739Z,3.06
2022-12-06T11:35:26.788Z,3.04
2022-12-06T11:38:28.622Z,2.98
2022-12-06T11:41:34.959Z,2.90
2022-12-06T11:44:55.084Z,2.83
2022-12-06T11:47:58.774Z,2.78
2022-12-06T11:51:00.502Z,2.61
2022-12-06T11:54:22.441Z,2.72
2022-12-06T11:57:28.059Z,2.80
2022-12-06T12:00:31.306Z,2.82
2022-12-06T12:03:34.303Z,2.59
2022-12-06T12:06:36.703Z,2.75
2022-12-06T12:09:46.667Z,2.79
2022-12-06T12:12:49.414Z,2.82
2022-12-06T12:15:53.454Z,2.80
2022-12-06T12:19:24.817Z,2.89
2022-12-06T12:22:40.242Z,2.90
2022-12-06T12:25:41.695Z,2.93
2022-12-06T12:28:44.956Z,2.92
2022-12-06T12:31:50.856Z,2.88
2022-12-06T12:34:52.292Z,2.90
2022-12-06T12:38:16.405Z,2.90
2022-12-06T12:41:37.724Z,2.93
2022-12-06T12:44:40.188Z,2.95
2022-12-06T12:47:56.337Z,2.93
2022-12-06T12:51:00.726Z,3.01
2022-12-06T12:54:05.538Z,3.09
2022-12-06T12:57:13.473Z,3.11
2022-12-06T13:00:28.393Z,3.17
2022-12-06T13:04:00.099Z,3.23
2022-12-06T13:07:09.982Z,3.34
2022-12-06T13:10:38.625Z,3.37
2022-12-06T13:13:45.202Z,3.48
2022-12-06T13:16:50.989Z,3.49
2022-12-06T13:19:53.810Z,3.40
2022-12-06T13:23:11.338Z,3.28
2022-12-06T13:26:22.312Z,3.23
2022-12-06T13:29:38.934Z,3.21
2022-12-06T13:32:56.883Z,3.13
2022-12-06T13:36:04.459Z,3.10
2022-12-06T13:39:30.615Z,2.99
2022-12-06T13:42:38.012Z,3.03
2022-12-06T13:45:44.093Z,3.04
2022-12-06T13:49:41.755Z,3.05
2022-12-06T13:52:48.062Z,3.05
2022-12-06T13:56:02.226Z,3.03
2022-12-06T13:59:13.529Z,3.06
2022-12-06T14:02:43.321Z,2.98
2022-12-06T14:08:57.588Z,2.92
2022-12-06T14:11:59.658Z,2.82
2022-12-06T14:15:04.335Z,2.79
2022-12-06T14:18:11.205Z,2.77
2022-12-06T14:21:36.209Z,2.69
2022-12-06T14:24:40.786Z,2.61
2022-12-06T14:27:45.914Z,2.54
2022-12-06T14:30:47.370Z,2.53
2022-12-06T14:33:48.944Z,2.51
2022-12-06T14:36:50.401Z,2.53
2022-12-06T14:39:53.409Z,2.61
2022-12-06T14:43:02.475Z,2.53
2022-12-06T14:46:11.577Z,2.38
2022-12-06T14:49:16.235Z,2.15
2022-12-06T14:52:17.502Z,2.01
2022-12-06T14:55:19.763Z,1.82
2022-12-06T14:58:25.895Z,1.64
2022-12-06T15:01:31.459Z,1.48
2022-12-06T15:04:38.243Z,1.34
2022-12-06T15:07:42.001Z,1.25
2022-12-06T15:11:16.344Z,1.11
2022-12-06T15:14:23.862Z,0.94
2022-12-06T15:17:25.291Z,0.83
2022-12-06T15:20:26.670Z,0.74
2022-12-06T15:23:33.332Z,0.60
2022-12-06T15:26:34.675Z,0.46
2022-12-06T15:29:36.040Z,0.42
2022-12-06T15:32:37.384Z,0.32
2022-12-06T15:35:38.712Z,0.27
2022-12-06T15:38:40.036Z,0.21
2022-12-06T15:41:42.100Z,0.17
2022-12-06T15:44:48.886Z,0.08
2022-12-06T15:47:50.705Z,0.04
2022-12-06T15:50:52.064Z,0.03
2022-12-06T15:53:56.272Z,-0.04
2022-12-06T15:56:57.629Z,-0.09
2022-12-06T15:59:58.984Z,-0.11
2022-12-06T16:03:00.468Z,-0.08
2022-12-06T16:06:01.894Z,-0.04
2022-12-06T16:09:03.393Z,0.01
2022-12-06T16:12:05.069Z,0.05
2022-12-06T16:15:06.789Z,0.12
2022-12-06T16:18:08.118Z,0.16
2022-12-06T16:21:19.369Z,0.14
2022-12-06T16:24:21.351Z,0.17
2022-12-06T16:27:22.718Z,0.20
2022-12-06T16:30:31.546Z,0.29
2022-12-06T16:33:33.150Z,0.33
2022-12-06T16:36:34.986Z,0.37
2022-12-06T16:39:36.368Z,0.40
2022-12-06T16:42:37.770Z,0.43
2022-12-06T16:45:43.503Z,0.45
2022-12-06T16:48:45.021Z,0.49
2022-12-06T16:51:47.079Z,0.46
2022-12-06T16:54:48.471Z,0.42
2022-12-06T16:57:50.143Z,0.48
2022-12-06T17:00:51.616Z,0.47
2022-12-06T17:03:55.719Z,0.43
2022-12-06T17:06:57.097Z,0.45
2022-12-06T17:09:58.896Z,0.46
2022-12-06T17:13:00.292Z,0.46
2022-12-06T17:16:01.724Z,0.53
2022-12-06T17:19:05.958Z,0.57
2022-12-06T17:22:09.801Z,0.58
2022-12-06T17:25:12.688Z,0.58
2022-12-06T17:28:14.040Z,0.54
2022-12-06T17:31:15.641Z,0.56
2022-12-06T17:34:17.848Z,0.59
2022-12-06T17:37:19.645Z,0.62
2022-12-06T17:40:20.991Z,0.64
2022-12-06T17:43:22.305Z,0.68
2022-12-06T17:46:23.856Z,0.72
2022-12-06T17:49:26.524Z,0.76
2022-12-06T17:52:27.866Z,0.68
2022-12-06T17:55:29.350Z,0.60
2022-12-06T17:58:30.669Z,0.49
2022-12-06T18:01:58.069Z,0.50
2022-12-06T18:04:55.041Z,0.48
2022-12-06T18:07:56.456Z,0.47
2022-12-06T18:10:59.103Z,0.45
2022-12-06T18:14:01.203Z,0.43
2022-12-06T18:17:02.832Z,0.41
2022-12-06T18:20:04.607Z,0.45
2022-12-06T18:23:05.991Z,0.45
2022-12-06T18:26:09.316Z,0.38
2022-12-06T18:29:20.603Z,0.17
2022-12-06T18:32:21.968Z,0.28
2022-12-06T18:35:23.331Z,0.33
2022-12-06T18:38:25.146Z,0.36
2022-12-06T18:41:26.799Z,0.32
2022-12-06T18:44:28.163Z,0.21
2022-12-06T18:47:29.808Z,0.10
2022-12-06T18:50:31.992Z,0.07
2022-12-06T18:53:33.941Z,0.02
2022-12-06T18:56:35.873Z,-0.02
2022-12-06T18:59:37.268Z,-0.05
2022-12-06T19:02:38.764Z,-0.02
2022-12-06T19:06:01.738Z,0.02
2022-12-06T19:09:05.264Z,0.02
2022-12-06T19:12:06.725Z,0.05
2022-12-06T19:15:08.582Z,0.11
2022-12-06T19:18:09.957Z,0.17
2022-12-06T19:21:11.282Z,0.20
2022-12-06T19:24:15.346Z,0.21
2022-12-06T19:27:20.496Z,0.20
2022-12-06T19:30:22.180Z,0.19
2022-12-06T19:33:23.593Z,0.16
2022-12-06T19:36:30.443Z,0.19
2022-12-06T19:39:31.868Z,0.21
2022-12-06T19:42:34.463Z,0.21
2022-12-06T19:45:35.891Z,0.20
2022-12-06T19:48:38.018Z,0.20
2022-12-06T19:51:44.524Z,0.22
2022-12-06T19:54:45.842Z,0.23
2022-12-06T19:57:47.203Z,0.25
2022-12-06T20:00:48.538Z,0.25
2022-12-06T20:03:50.772Z,0.25
2022-12-06T20:06:52.743Z,0.22
2022-12-06T20:09:54.132Z,0.21
2022-12-06T20:12:55.455Z,0.26
2022-12-06T20:16:01.199Z,0.29
2022-12-06T20:19:03.932Z,0.33
2022-12-06T20:22:05.456Z,0.35
2022-12-06T20:25:07.169Z,0.38
2022-12-06T20:28:13.359Z,0.40
2022-12-06T20:31:24.296Z,0.41
2022-12-06T20:34:27.406Z,0.41
2022-12-06T20:37:28.795Z,0.46
2022-12-06T20:40:31.762Z,0.49
2022-12-06T20:43:33.356Z,0.52
2022-12-06T20:46:34.781Z,0.56
2022-12-06T20:49:36.161Z,0.59
2022-12-06T20:52:37.492Z,0.63
2022-12-06T20:55:38.834Z,0.66
2022-12-06T20:58:40.146Z,0.69
2022-12-06T21:01:41.836Z,0.72
2022-12-06T21:04:43.313Z,0.74
2022-12-06T21:07:44.783Z,0.75
2022-12-06T21:11:20.619Z,0.79
2022-12-06T21:14:07.555Z,0.83
2022-12-06T21:17:08.905Z,0.90
2022-12-06T21:20:10.714Z,0.96
2022-12-06T21:23:12.269Z,1.02
2022-12-06T21:26:13.645Z,1.04
2022-12-06T21:29:21.669Z,1.12
2022-12-06T21:32:25.134Z,1.15
2022-12-06T21:35:26.520Z,1.18
2022-12-06T21:38:30.086Z,1.21
2022-12-06T21:41:31.510Z,1.21
2022-12-06T21:44:32.827Z,1.23
2022-12-06T21:47:34.177Z,1.26
2022-12-06T21:50:36.363Z,1.28
2022-12-06T21:53:38.255Z,1.30
2022-12-06T21:56:39.614Z,1.33
2022-12-06T21:59:41.231Z,1.38
2022-12-06T22:02:43.937Z,1.42
2022-12-06T22:05:45.335Z,1.43
2022-12-06T22:08:48.691Z,1.47
2022-12-06T22:11:50.033Z,1.48
2022-12-06T22:14:51.475Z,1.47
2022-12-06T22:17:52.812Z,1.48
2022-12-06T22:21:03.497Z,1.51
2022-12-06T22:24:05.136Z,1.53
2022-12-06T22:27:06.506Z,1.56
2022-12-06T22:30:08.404Z,1.61
2022-12-06T22:33:09.724Z,1.65
2022-12-06T22:36:11.967Z,1.66
2022-12-06T22:39:13.357Z,1.68
2022-12-06T22:42:14.725Z,1.66
2022-12-06T22:45:16.117Z,1.66
2022-12-06T22:48:17.661Z,1.64
2022-12-06T22:51:27.783Z,1.64
2022-12-06T22:54:29.182Z,1.61
2022-12-06T22:57:30.609Z,1.59
2022-12-06T23:00:31.977Z,1.58
2022-12-06T23:03:33.396Z,1.52
2022-12-06T23:06:35.583Z,1.46
2022-12-06T23:09:37.133Z,1.42
2022-12-06T23:12:39.771Z,1.35
2022-12-06T23:15:41.104Z,1.28
2022-12-06T23:18:42.905Z,1.25
2022-12-06T23:21:44.243Z,1.23
2022-12-06T23:24:45.594Z,1.27
2022-12-06T23:27:46.962Z,1.28
2022-12-06T23:30:48.308Z,1.35
2022-12-06T23:33:55.537Z,1.43
2022-12-06T23:36:56.872Z,1.47
2022-12-06T23:39:58.351Z,1.48
2022-12-06T23:42:59.983Z,1.48
2022-12-06T23:46:07.096Z,1.42
2022-12-06T23:49:15.795Z,1.34
2022-12-06T23:52:17.163Z,1.30
2022-12-06T23:55:18.525Z,1.36
2022-12-06T23:58:19.907Z,1.44
